Aviation Digital Data Service (ADDS)

Output produced by TAFs form (0706 UTC 24 May 2015)
found at http://www.aviationweather.gov/adds/tafs/
 
KBJC 240656Z AUTO 23005KT 10SM CLR 06/03 A2997 RMK AO2
KBJC 240531Z 2406/2506 VRB04KT P6SM FEW080 
     FM240900 VRB05KT P6SM VCFG SCT006 SCT012 
     TEMPO 2410/2414 3/4SM BR VV003 
     FM241500 12007KT P6SM SCT025 SCT080 
     FM241800 25009KT P6SM BKN030 BKN050 
     TEMPO 2419/2423 4SM -TSRA BKN025CB OVC050 
     FM242300 11010KT P6SM -SHRA BKN025 OVC050 
     TEMPO 2423/2503 3SM -TSRA BKN015CB 
     FM250300 16007KT P6SM SCT040 BKN090